sensor_id;sensor_type;location;lat;lon;timestamp;pressure;altitude;pressure_sealevel;temperature;humidity
21359;BME280;13506;50.852;20.632;2023-08-06T00:01:19;96976.63;;;19.12;100.00
21359;BME280;13506;50.852;20.632;2023-08-06T00:03:50;96985.19;;;19.21;100.00
21359;BME280;13506;50.852;20.632;2023-08-06T00:06:19;96988.31;;;18.83;100.00
21359;BME280;13506;50.852;20.632;2023-08-06T00:08:47;96983.31;;;19.01;100.00
21359;BME280;13506;50.852;20.632;2023-08-06T00:11:15;96979.44;;;19.04;100.00
21359;BME280;13506;50.852;20.632;2023-08-06T00:13:43;96983.97;;;19.17;100.00
21359;BME280;13506;50.852;20.632;2023-08-06T00:16:13;96973.78;;;19.20;100.00
21359;BME280;13506;50.852;20.632;2023-08-06T00:18:41;96961.53;;;19.13;100.00
21359;BME280;13506;50.852;20.632;2023-08-06T00:21:10;96957.44;;;19.17;100.00
21359;BME280;13506;50.852;20.632;2023-08-06T00:23:38;96965.63;;;19.09;100.00
21359;BME280;13506;50.852;20.632;2023-08-06T00:26:07;96988.00;;;19.06;100.00
21359;BME280;13506;50.852;20.632;2023-08-06T00:28:35;97010.69;;;19.15;100.00
21359;BME280;13506;50.852;20.632;2023-08-06T00:31:04;97039.69;;;19.23;100.00
21359;BME280;13506;50.852;20.632;2023-08-06T00:33:33;97051.28;;;19.22;100.00
21359;BME280;13506;50.852;20.632;2023-08-06T00:36:01;97046.81;;;19.23;100.00
21359;BME280;13506;50.852;20.632;2023-08-06T00:38:29;97053.13;;;19.22;100.00
21359;BME280;13506;50.852;20.632;2023-08-06T00:40:58;97076.81;;;19.23;100.00
21359;BME280;13506;50.852;20.632;2023-08-06T00:43:26;97079.47;;;19.23;100.00
21359;BME280;13506;50.852;20.632;2023-08-06T00:45:54;97084.16;;;19.21;100.00
21359;BME280;13506;50.852;20.632;2023-08-06T00:48:23;97122.56;;;19.04;100.00
21359;BME280;13506;50.852;20.632;2023-08-06T00:50:53;97125.81;;;18.99;100.00
21359;BME280;13506;50.852;20.632;2023-08-06T00:53:22;97016.75;;;18.96;100.00
21359;BME280;13506;50.852;20.632;2023-08-06T00:55:51;96942.69;;;18.81;100.00
21359;BME280;13506;50.852;20.632;2023-08-06T00:58:19;96927.00;;;18.86;100.00
21359;BME280;13506;50.852;20.632;2023-08-06T01:00:48;96896.63;;;18.82;100.00
21359;BME280;13506;50.852;20.632;2023-08-06T01:03:16;96909.44;;;18.85;100.00
21359;BME280;13506;50.852;20.632;2023-08-06T01:05:44;96915.34;;;18.80;100.00
21359;BME280;13506;50.852;20.632;2023-08-06T01:08:23;96924.34;;;18.86;100.00
21359;BME280;13506;50.852;20.632;2023-08-06T01:11:05;96908.47;;;18.93;100.00
21359;BME280;13506;50.852;20.632;2023-08-06T01:13:43;96885.25;;;19.01;100.00
21359;BME280;13506;50.852;20.632;2023-08-06T01:16:16;96890.97;;;19.05;100.00
21359;BME280;13506;50.852;20.632;2023-08-06T01:18:46;96891.34;;;19.02;100.00
21359;BME280;13506;50.852;20.632;2023-08-06T01:21:17;96893.19;;;19.08;100.00
21359;BME280;13506;50.852;20.632;2023-08-06T01:23:46;96875.47;;;19.09;100.00
21359;BME280;13506;50.852;20.632;2023-08-06T01:26:22;96870.56;;;19.12;100.00
21359;BME280;13506;50.852;20.632;2023-08-06T01:28:59;96870.56;;;19.19;100.00
21359;BME280;13506;50.852;20.632;2023-08-06T01:31:31;96866.13;;;19.19;100.00
21359;BME280;13506;50.852;20.632;2023-08-06T01:34:01;96847.31;;;19.21;100.00
21359;BME280;13506;50.852;20.632;2023-08-06T01:36:32;96837.13;;;19.24;100.00
21359;BME280;13506;50.852;20.632;2023-08-06T01:39:00;96836.53;;;19.22;100.00
21359;BME280;13506;50.852;20.632;2023-08-06T01:41:29;96833.06;;;19.22;100.00
21359;BME280;13506;50.852;20.632;2023-08-06T01:43:57;96820.81;;;19.21;100.00
21359;BME280;13506;50.852;20.632;2023-08-06T01:46:26;96812.66;;;19.22;100.00
21359;BME280;13506;50.852;20.632;2023-08-06T01:48:53;96798.78;;;19.20;100.00
21359;BME280;13506;50.852;20.632;2023-08-06T01:51:22;96798.59;;;19.22;100.00
21359;BME280;13506;50.852;20.632;2023-08-06T01:53:51;96790.22;;;19.18;100.00
21359;BME280;13506;50.852;20.632;2023-08-06T01:56:20;96778.41;;;19.14;100.00
21359;BME280;13506;50.852;20.632;2023-08-06T01:58:48;96765.16;;;19.14;100.00
21359;BME280;13506;50.852;20.632;2023-08-06T02:01:17;96751.28;;;19.12;100.00
21359;BME280;13506;50.852;20.632;2023-08-06T02:03:45;96740.06;;;19.10;100.00
21359;BME280;13506;50.852;20.632;2023-08-06T02:06:13;96729.47;;;19.03;100.00
21359;BME280;13506;50.852;20.632;2023-08-06T02:08:41;96731.94;;;19.05;100.00
21359;BME280;13506;50.852;20.632;2023-08-06T02:11:11;96717.03;;;19.04;100.00
21359;BME280;13506;50.852;20.632;2023-08-06T02:13:39;96713.38;;;18.92;100.00
21359;BME280;13506;50.852;20.632;2023-08-06T02:16:08;96707.25;;;18.71;100.00
21359;BME280;13506;50.852;20.632;2023-08-06T02:18:36;96703.97;;;18.69;100.00
21359;BME280;13506;50.852;20.632;2023-08-06T02:21:04;96703.38;;;18.67;100.00
21359;BME280;13506;50.852;20.632;2023-08-06T02:23:32;96699.91;;;18.60;100.00
21359;BME280;13506;50.852;20.632;2023-08-06T02:26:02;96698.44;;;18.57;100.00
21359;BME280;13506;50.852;20.632;2023-08-06T02:28:32;96694.38;;;18.41;100.00
21359;BME280;13506;50.852;20.632;2023-08-06T02:31:00;96699.06;;;18.39;100.00
21359;BME280;13506;50.852;20.632;2023-08-06T02:33:29;96686.81;;;18.25;100.00
21359;BME280;13506;50.852;20.632;2023-08-06T02:36:01;96681.34;;;18.40;100.00
21359;BME280;13506;50.852;20.632;2023-08-06T02:38:30;96680.91;;;18.36;100.00
21359;BME280;13506;50.852;20.632;2023-08-06T02:41:02;96687.00;;;18.23;100.00
21359;BME280;13506;50.852;20.632;2023-08-06T02:43:31;96704.47;;;18.04;100.00
21359;BME280;13506;50.852;20.632;2023-08-06T02:46:00;96701.72;;;17.84;100.00
21359;BME280;13506;50.852;20.632;2023-08-06T02:48:28;96711.09;;;17.87;100.00
21359;BME280;13506;50.852;20.632;2023-08-06T02:51:00;96705.06;;;17.93;100.00
21359;BME280;13506;50.852;20.632;2023-08-06T02:53:30;96704.47;;;17.56;100.00
21359;BME280;13506;50.852;20.632;2023-08-06T02:56:02;96703.06;;;17.60;100.00
21359;BME280;13506;50.852;20.632;2023-08-06T02:58:41;96685.38;;;17.26;100.00
21359;BME280;13506;50.852;20.632;2023-08-06T03:01:20;96684.06;;;17.43;100.00
21359;BME280;13506;50.852;20.632;2023-08-06T03:03:56;96683.56;;;17.27;100.00
21359;BME280;13506;50.852;20.632;2023-08-06T03:06:30;96681.63;;;17.42;100.00
21359;BME280;13506;50.852;20.632;2023-08-06T03:09:01;96676.34;;;17.42;100.00
21359;BME280;13506;50.852;20.632;2023-08-06T03:11:29;96681.22;;;17.45;100.00
21359;BME280;13506;50.852;20.632;2023-08-06T03:14:05;96678.03;;;17.21;100.00
21359;BME280;13506;50.852;20.632;2023-08-06T03:16:34;96669.53;;;17.26;100.00
21359;BME280;13506;50.852;20.632;2023-08-06T03:19:02;96672.44;;;17.38;100.00
21359;BME280;13506;50.852;20.632;2023-08-06T03:21:30;96669.97;;;17.30;100.00
21359;BME280;13506;50.852;20.632;2023-08-06T03:23:59;96659.44;;;17.43;100.00
21359;BME280;13506;50.852;20.632;2023-08-06T03:26:31;96661.84;;;17.31;100.00
21359;BME280;13506;50.852;20.632;2023-08-06T03:28:58;96658.53;;;17.22;100.00
21359;BME280;13506;50.852;20.632;2023-08-06T03:31:31;96652.88;;;17.32;100.00
21359;BME280;13506;50.852;20.632;2023-08-06T03:34:00;96649.66;;;17.37;100.00
21359;BME280;13506;50.852;20.632;2023-08-06T03:36:30;96633.41;;;17.40;100.00
21359;BME280;13506;50.852;20.632;2023-08-06T03:38:58;96634.06;;;17.49;100.00
21359;BME280;13506;50.852;20.632;2023-08-06T03:41:28;96634.69;;;17.51;100.00
21359;BME280;13506;50.852;20.632;2023-08-06T03:43:56;96628.50;;;17.37;100.00
21359;BME280;13506;50.852;20.632;2023-08-06T03:46:27;96616.75;;;17.46;100.00
21359;BME280;13506;50.852;20.632;2023-08-06T03:48:56;96622.88;;;17.53;100.00
21359;BME280;13506;50.852;20.632;2023-08-06T03:51:26;96624.06;;;17.44;100.00
21359;BME280;13506;50.852;20.632;2023-08-06T03:53:54;96618.78;;;17.44;100.00
21359;BME280;13506;50.852;20.632;2023-08-06T03:56:23;96625.63;;;17.25;100.00
21359;BME280;13506;50.852;20.632;2023-08-06T03:58:51;96624.22;;;17.29;100.00
21359;BME280;13506;50.852;20.632;2023-08-06T04:01:19;96644.16;;;17.32;100.00
21359;BME280;13506;50.852;20.632;2023-08-06T04:03:48;96638.53;;;16.78;100.00
21359;BME280;13506;50.852;20.632;2023-08-06T04:06:18;96643.13;;;16.98;100.00
21359;BME280;13506;50.852;20.632;2023-08-06T04:08:46;96643.75;;;17.00;100.00
21359;BME280;13506;50.852;20.632;2023-08-06T04:11:14;96637.25;;;17.02;100.00
21359;BME280;13506;50.852;20.632;2023-08-06T04:13:43;96636.78;;;16.92;100.00
21359;BME280;13506;50.852;20.632;2023-08-06T04:16:12;96629.44;;;16.88;100.00
21359;BME280;13506;50.852;20.632;2023-08-06T04:18:41;96631.22;;;16.80;100.00
21359;BME280;13506;50.852;20.632;2023-08-06T04:21:10;96622.13;;;16.90;100.00
21359;BME280;13506;50.852;20.632;2023-08-06T04:23:39;96620.94;;;16.92;100.00
21359;BME280;13506;50.852;20.632;2023-08-06T04:26:09;96619.69;;;17.16;100.00
21359;BME280;13506;50.852;20.632;2023-08-06T04:28:38;96617.81;;;17.10;100.00
21359;BME280;13506;50.852;20.632;2023-08-06T04:31:06;96601.03;;;17.31;100.00
21359;BME280;13506;50.852;20.632;2023-08-06T04:33:35;96619.72;;;17.23;100.00
21359;BME280;13506;50.852;20.632;2023-08-06T04:36:09;96595.97;;;17.36;100.00
21359;BME280;13506;50.852;20.632;2023-08-06T04:38:38;96606.53;;;17.36;100.00
21359;BME280;13506;50.852;20.632;2023-08-06T04:41:08;96604.44;;;17.18;100.00
21359;BME280;13506;50.852;20.632;2023-08-06T04:43:36;96588.97;;;17.15;100.00
21359;BME280;13506;50.852;20.632;2023-08-06T04:46:06;96592.72;;;17.34;100.00
21359;BME280;13506;50.852;20.632;2023-08-06T04:48:34;96585.97;;;17.25;100.00
21359;BME280;13506;50.852;20.632;2023-08-06T04:51:02;96588.66;;;17.32;100.00
21359;BME280;13506;50.852;20.632;2023-08-06T04:53:31;96586.63;;;17.34;100.00
21359;BME280;13506;50.852;20.632;2023-08-06T04:56:00;96581.78;;;17.44;100.00
21359;BME280;13506;50.852;20.632;2023-08-06T04:58:28;96582.53;;;17.24;100.00
21359;BME280;13506;50.852;20.632;2023-08-06T05:00:56;96582.16;;;17.41;100.00
21359;BME280;13506;50.852;20.632;2023-08-06T05:03:25;96576.06;;;17.47;100.00
21359;BME280;13506;50.852;20.632;2023-08-06T05:05:53;96574.47;;;17.53;100.00
21359;BME280;13506;50.852;20.632;2023-08-06T05:08:22;96569.63;;;17.70;100.00
21359;BME280;13506;50.852;20.632;2023-08-06T05:10:50;96570.00;;;17.60;100.00
21359;BME280;13506;50.852;20.632;2023-08-06T05:13:20;96569.47;;;17.84;100.00
21359;BME280;13506;50.852;20.632;2023-08-06T05:15:48;96562.78;;;18.02;100.00
21359;BME280;13506;50.852;20.632;2023-08-06T05:18:16;96577.47;;;18.18;100.00
21359;BME280;13506;50.852;20.632;2023-08-06T05:20:45;96578.88;;;18.27;100.00
21359;BME280;13506;50.852;20.632;2023-08-06T05:23:13;96576.25;;;18.14;100.00
21359;BME280;13506;50.852;20.632;2023-08-06T05:25:41;96573.09;;;17.83;100.00
21359;BME280;13506;50.852;20.632;2023-08-06T05:28:09;96568.00;;;17.69;100.00
21359;BME280;13506;50.852;20.632;2023-08-06T05:30:41;96563.09;;;17.46;100.00
21359;BME280;13506;50.852;20.632;2023-08-06T05:33:09;96555.78;;;17.54;100.00
21359;BME280;13506;50.852;20.632;2023-08-06T05:35:37;96559.66;;;17.58;100.00
21359;BME280;13506;50.852;20.632;2023-08-06T05:38:05;96550.50;;;17.54;100.00
21359;BME280;13506;50.852;20.632;2023-08-06T05:40:34;96551.66;;;17.45;100.00
21359;BME280;13506;50.852;20.632;2023-08-06T05:43:02;96553.31;;;17.46;100.00
21359;BME280;13506;50.852;20.632;2023-08-06T05:45:30;96548.84;;;17.60;100.00
21359;BME280;13506;50.852;20.632;2023-08-06T05:47:59;96550.94;;;17.64;100.00
21359;BME280;13506;50.852;20.632;2023-08-06T05:50:28;96548.47;;;17.56;100.00
21359;BME280;13506;50.852;20.632;2023-08-06T05:52:56;96530.16;;;17.61;100.00
21359;BME280;13506;50.852;20.632;2023-08-06T05:55:24;96532.44;;;17.78;100.00
21359;BME280;13506;50.852;20.632;2023-08-06T05:57:52;96530.78;;;17.77;100.00
21359;BME280;13506;50.852;20.632;2023-08-06T06:00:21;96526.53;;;17.89;100.00
21359;BME280;13506;50.852;20.632;2023-08-06T06:02:49;96519.66;;;18.01;100.00
21359;BME280;13506;50.852;20.632;2023-08-06T06:05:19;96530.16;;;17.75;100.00
21359;BME280;13506;50.852;20.632;2023-08-06T06:07:47;96532.84;;;17.88;100.00
21359;BME280;13506;50.852;20.632;2023-08-06T06:10:15;96532.28;;;17.99;100.00
21359;BME280;13506;50.852;20.632;2023-08-06T06:12:43;96536.31;;;17.89;100.00
21359;BME280;13506;50.852;20.632;2023-08-06T06:15:11;96526.53;;;17.89;100.00
21359;BME280;13506;50.852;20.632;2023-08-06T06:17:39;96529.97;;;17.76;100.00
21359;BME280;13506;50.852;20.632;2023-08-06T06:20:08;96531.41;;;17.85;100.00
21359;BME280;13506;50.852;20.632;2023-08-06T06:22:38;96524.47;;;17.64;100.00
21359;BME280;13506;50.852;20.632;2023-08-06T06:25:07;96521.84;;;17.91;100.00
21359;BME280;13506;50.852;20.632;2023-08-06T06:27:36;96500.88;;;17.90;100.00
21359;BME280;13506;50.852;20.632;2023-08-06T06:30:05;96512.69;;;17.67;100.00
21359;BME280;13506;50.852;20.632;2023-08-06T06:32:33;96519.03;;;17.99;100.00
21359;BME280;13506;50.852;20.632;2023-08-06T06:35:02;96493.38;;;17.93;100.00
21359;BME280;13506;50.852;20.632;2023-08-06T06:37:30;96501.28;;;17.87;100.00
21359;BME280;13506;50.852;20.632;2023-08-06T06:39:59;96496.84;;;18.07;100.00
21359;BME280;13506;50.852;20.632;2023-08-06T06:42:27;96508.44;;;17.99;100.00
21359;BME280;13506;50.852;20.632;2023-08-06T06:45:02;96492.38;;;18.01;100.00
21359;BME280;13506;50.852;20.632;2023-08-06T06:47:30;96496.84;;;18.00;100.00
21359;BME280;13506;50.852;20.632;2023-08-06T06:49:58;96498.03;;;17.91;100.00
21359;BME280;13506;50.852;20.632;2023-08-06T06:52:26;96498.84;;;17.72;100.00
21359;BME280;13506;50.852;20.632;2023-08-06T06:54:54;96499.22;;;17.62;100.00
21359;BME280;13506;50.852;20.632;2023-08-06T06:57:23;96506.16;;;17.70;100.00
21359;BME280;13506;50.852;20.632;2023-08-06T06:59:51;96504.75;;;17.80;100.00
21359;BME280;13506;50.852;20.632;2023-08-06T07:02:19;96503.09;;;17.53;100.00
21359;BME280;13506;50.852;20.632;2023-08-06T07:04:48;96496.41;;;17.83;100.00
21359;BME280;13506;50.852;20.632;2023-08-06T07:07:16;96502.97;;;17.94;100.00
21359;BME280;13506;50.852;20.632;2023-08-06T07:09:44;96498.28;;;18.03;100.00
21359;BME280;13506;50.852;20.632;2023-08-06T07:12:12;96504.56;;;17.82;100.00
21359;BME280;13506;50.852;20.632;2023-08-06T07:14:42;96492.38;;;17.94;100.00
21359;BME280;13506;50.852;20.632;2023-08-06T07:17:10;96495.63;;;18.10;100.00
21359;BME280;13506;50.852;20.632;2023-08-06T07:19:38;96494.81;;;18.22;100.00
21359;BME280;13506;50.852;20.632;2023-08-06T07:22:06;96494.41;;;17.99;100.00
21359;BME280;13506;50.852;20.632;2023-08-06T07:24:34;96497.88;;;17.93;100.00
21359;BME280;13506;50.852;20.632;2023-08-06T07:27:03;96497.47;;;18.16;100.00
21359;BME280;13506;50.852;20.632;2023-08-06T07:29:31;96497.25;;;17.97;100.00
21359;BME280;13506;50.852;20.632;2023-08-06T07:32:00;96486.25;;;17.94;100.00
21359;BME280;13506;50.852;20.632;2023-08-06T07:34:28;96491.75;;;18.12;100.00
21359;BME280;13506;50.852;20.632;2023-08-06T07:36:56;96483.41;;;18.02;100.00
21359;BME280;13506;50.852;20.632;2023-08-06T07:39:25;96477.50;;;18.20;100.00
21359;BME280;13506;50.852;20.632;2023-08-06T07:41:55;96478.50;;;18.19;100.00
21359;BME280;13506;50.852;20.632;2023-08-06T07:44:23;96475.25;;;18.10;100.00
21359;BME280;13506;50.852;20.632;2023-08-06T07:46:51;96479.13;;;18.21;100.00
21359;BME280;13506;50.852;20.632;2023-08-06T07:49:21;96471.00;;;18.02;100.00
21359;BME280;13506;50.852;20.632;2023-08-06T07:51:49;96467.91;;;18.19;100.00
21359;BME280;13506;50.852;20.632;2023-08-06T07:54:18;96474.03;;;18.26;100.00
21359;BME280;13506;50.852;20.632;2023-08-06T07:56:46;96469.75;;;18.25;100.00
21359;BME280;13506;50.852;20.632;2023-08-06T07:59:14;96465.50;;;18.24;100.00
21359;BME280;13506;50.852;20.632;2023-08-06T08:01:42;96458.88;;;18.60;100.00
21359;BME280;13506;50.852;20.632;2023-08-06T08:04:10;96457.47;;;18.51;100.00
21359;BME280;13506;50.852;20.632;2023-08-06T08:06:40;96451.06;;;18.85;100.00
21359;BME280;13506;50.852;20.632;2023-08-06T08:09:08;96444.03;;;19.11;100.00
21359;BME280;13506;50.852;20.632;2023-08-06T08:11:36;96457.00;;;19.25;100.00
21359;BME280;13506;50.852;20.632;2023-08-06T08:14:04;96451.53;;;19.45;100.00
21359;BME280;13506;50.852;20.632;2023-08-06T08:16:33;96446.19;;;19.84;100.00
21359;BME280;13506;50.852;20.632;2023-08-06T08:19:01;96448.59;;;20.11;100.00
21359;BME280;13506;50.852;20.632;2023-08-06T08:21:30;96440.28;;;20.51;100.00
21359;BME280;13506;50.852;20.632;2023-08-06T08:24:00;96446.00;;;20.47;100.00
21359;BME280;13506;50.852;20.632;2023-08-06T08:26:29;96443.81;;;20.44;100.00
21359;BME280;13506;50.852;20.632;2023-08-06T08:28:57;96436.72;;;20.57;100.00
21359;BME280;13506;50.852;20.632;2023-08-06T08:31:25;96437.06;;;20.60;100.00
21359;BME280;13506;50.852;20.632;2023-08-06T08:33:55;96425.06;;;20.58;100.00
21359;BME280;13506;50.852;20.632;2023-08-06T08:36:24;96426.22;;;20.43;100.00
21359;BME280;13506;50.852;20.632;2023-08-06T08:38:52;96425.06;;;20.58;100.00
21359;BME280;13506;50.852;20.632;2023-08-06T08:41:22;96410.50;;;20.79;100.00
21359;BME280;13506;50.852;20.632;2023-08-06T08:43:50;96417.09;;;21.06;100.00
21359;BME280;13506;50.852;20.632;2023-08-06T08:46:20;96416.66;;;21.52;100.00
21359;BME280;13506;50.852;20.632;2023-08-06T08:48:48;96419.19;;;21.46;100.00
21359;BME280;13506;50.852;20.632;2023-08-06T08:51:17;96429.78;;;21.35;100.00
21359;BME280;13506;50.852;20.632;2023-08-06T08:53:48;96421.75;;;21.41;100.00
21359;BME280;13506;50.852;20.632;2023-08-06T08:56:17;96421.31;;;21.14;100.00
21359;BME280;13506;50.852;20.632;2023-08-06T08:58:47;96409.63;;;20.97;100.00
21359;BME280;13506;50.852;20.632;2023-08-06T09:01:16;96400.97;;;21.20;100.00
21359;BME280;13506;50.852;20.632;2023-08-06T09:03:44;96401.44;;;20.98;100.00
21359;BME280;13506;50.852;20.632;2023-08-06T09:06:14;96406.47;;;21.06;100.00
21359;BME280;13506;50.852;20.632;2023-08-06T09:08:50;96405.38;;;20.96;100.00
21359;BME280;13506;50.852;20.632;2023-08-06T09:11:19;96393.88;;;21.14;100.00
21359;BME280;13506;50.852;20.632;2023-08-06T09:13:50;96397.72;;;21.18;100.00
21359;BME280;13506;50.852;20.632;2023-08-06T09:16:18;96389.84;;;21.11;100.00
21359;BME280;13506;50.852;20.632;2023-08-06T09:18:46;96392.91;;;21.26;100.00
21359;BME280;13506;50.852;20.632;2023-08-06T09:21:14;96392.09;;;21.38;100.00
21359;BME280;13506;50.852;20.632;2023-08-06T09:23:43;96393.94;;;21.25;100.00
21359;BME280;13506;50.852;20.632;2023-08-06T09:26:12;96378.59;;;21.39;100.00
21359;BME280;13506;50.852;20.632;2023-08-06T09:28:41;96366.91;;;21.40;100.00
21359;BME280;13506;50.852;20.632;2023-08-06T09:31:11;96368.84;;;21.33;100.00
21359;BME280;13506;50.852;20.632;2023-08-06T09:33:39;96356.75;;;21.73;100.00
21359;BME280;13506;50.852;20.632;2023-08-06T09:36:11;96352.38;;;21.90;100.00
21359;BME280;13506;50.852;20.632;2023-08-06T09:38:39;96375.63;;;22.06;100.00
21359;BME280;13506;50.852;20.632;2023-08-06T09:41:08;96359.28;;;22.15;100.00
21359;BME280;13506;50.852;20.632;2023-08-06T09:43:43;96341.97;;;22.53;100.00
21359;BME280;13506;50.852;20.632;2023-08-06T09:46:13;96360.16;;;22.84;100.00
21359;BME280;13506;50.852;20.632;2023-08-06T09:48:45;96345.13;;;22.95;100.00
21359;BME280;13506;50.852;20.632;2023-08-06T09:51:14;96357.75;;;23.28;100.00
21359;BME280;13506;50.852;20.632;2023-08-06T09:53:44;96345.38;;;23.22;95.57
21359;BME280;13506;50.852;20.632;2023-08-06T09:56:14;96352.81;;;23.54;96.95
21359;BME280;13506;50.852;20.632;2023-08-06T09:58:45;96342.16;;;23.37;97.57
21359;BME280;13506;50.852;20.632;2023-08-06T10:01:17;96343.66;;;23.16;97.96
21359;BME280;13506;50.852;20.632;2023-08-06T10:03:47;96353.94;;;22.96;98.94
21359;BME280;13506;50.852;20.632;2023-08-06T10:06:17;96355.00;;;22.95;99.45
21359;BME280;13506;50.852;20.632;2023-08-06T10:08:46;96369.63;;;23.21;96.76
21359;BME280;13506;50.852;20.632;2023-08-06T10:11:15;96359.59;;;23.11;96.86
21359;BME280;13506;50.852;20.632;2023-08-06T10:13:45;96347.16;;;23.50;94.99
21359;BME280;13506;50.852;20.632;2023-08-06T10:16:15;96342.56;;;23.80;92.27
21359;BME280;13506;50.852;20.632;2023-08-06T10:18:44;96342.56;;;23.80;93.10
21359;BME280;13506;50.852;20.632;2023-08-06T10:21:12;96336.38;;;23.96;93.46
21359;BME280;13506;50.852;20.632;2023-08-06T10:23:41;96340.41;;;24.38;91.75
21359;BME280;13506;50.852;20.632;2023-08-06T10:26:09;96340.03;;;24.12;89.56
21359;BME280;13506;50.852;20.632;2023-08-06T10:28:39;96354.91;;;23.86;86.89
21359;BME280;13506;50.852;20.632;2023-08-06T10:31:07;96349.41;;;23.92;82.95
21359;BME280;13506;50.852;20.632;2023-08-06T10:33:44;96339.81;;;23.58;81.85
21359;BME280;13506;50.852;20.632;2023-08-06T10:36:13;96351.22;;;23.36;80.03
21359;BME280;13506;50.852;20.632;2023-08-06T10:38:46;96372.81;;;23.68;78.92
21359;BME280;13506;50.852;20.632;2023-08-06T10:41:22;96337.03;;;23.69;81.07
21359;BME280;13506;50.852;20.632;2023-08-06T10:43:51;96360.44;;;23.45;83.54
21359;BME280;13506;50.852;20.632;2023-08-06T10:46:23;96346.69;;;23.37;85.40
21359;BME280;13506;50.852;20.632;2023-08-06T10:48:56;96333.88;;;23.89;84.33
21359;BME280;13506;50.852;20.632;2023-08-06T10:51:24;96342.56;;;23.80;85.60
21359;BME280;13506;50.852;20.632;2023-08-06T10:53:52;96355.81;;;23.91;85.38
21359;BME280;13506;50.852;20.632;2023-08-06T10:56:22;96381.16;;;23.72;84.49
21359;BME280;13506;50.852;20.632;2023-08-06T10:58:55;96369.06;;;24.03;82.60
21359;BME280;13506;50.852;20.632;2023-08-06T11:01:24;96360.44;;;23.62;82.96
21359;BME280;13506;50.852;20.632;2023-08-06T11:04:02;96359.53;;;23.40;84.74
21359;BME280;13506;50.852;20.632;2023-08-06T11:06:31;96354.69;;;23.70;84.80
21359;BME280;13506;50.852;20.632;2023-08-06T11:09:02;96354.22;;;24.13;84.73
21359;BME280;13506;50.852;20.632;2023-08-06T11:11:30;96364.75;;;24.41;84.45
21359;BME280;13506;50.852;20.632;2023-08-06T11:13:58;96363.34;;;24.56;85.14
21359;BME280;13506;50.852;20.632;2023-08-06T11:16:27;96342.53;;;24.63;84.82
21359;BME280;13506;50.852;20.632;2023-08-06T11:18:57;96341.44;;;24.86;83.91
21359;BME280;13506;50.852;20.632;2023-08-06T11:21:27;96338.16;;;25.01;82.58
21359;BME280;13506;50.852;20.632;2023-08-06T11:23:56;96333.44;;;25.13;81.61
21359;BME280;13506;50.852;20.632;2023-08-06T11:26:24;96337.66;;;25.04;80.95
21359;BME280;13506;50.852;20.632;2023-08-06T11:28:52;96343.38;;;24.90;80.38
21359;BME280;13506;50.852;20.632;2023-08-06T11:31:21;96326.41;;;24.80;80.05
21359;BME280;13506;50.852;20.632;2023-08-06T11:33:50;96327.63;;;24.67;80.68
21359;BME280;13506;50.852;20.632;2023-08-06T11:36:30;96323.91;;;24.24;82.36
21359;BME280;13506;50.852;20.632;2023-08-06T11:38:58;96326.00;;;24.22;82.05
21359;BME280;13506;50.852;20.632;2023-08-06T11:41:28;96333.22;;;24.21;80.09
21359;BME280;13506;50.852;20.632;2023-08-06T11:43:57;96336.75;;;24.27;79.51
21359;BME280;13506;50.852;20.632;2023-08-06T11:46:25;96342.38;;;24.47;78.57
21359;BME280;13506;50.852;20.632;2023-08-06T11:48:55;96363.44;;;24.66;76.17
21359;BME280;13506;50.852;20.632;2023-08-06T11:51:23;96372.47;;;24.60;75.26
21359;BME280;13506;50.852;20.632;2023-08-06T11:53:56;96363.22;;;24.67;75.89
21359;BME280;13506;50.852;20.632;2023-08-06T11:56:25;96376.25;;;24.64;75.58
21359;BME280;13506;50.852;20.632;2023-08-06T11:58:55;96380.38;;;24.49;75.58
21359;BME280;13506;50.852;20.632;2023-08-06T12:01:23;96383.97;;;24.38;76.12
21359;BME280;13506;50.852;20.632;2023-08-06T12:03:52;96387.16;;;24.18;75.46
21359;BME280;13506;50.852;20.632;2023-08-06T12:06:20;96393.66;;;24.05;75.71
21359;BME280;13506;50.852;20.632;2023-08-06T12:08:48;96401.81;;;24.16;75.34
21359;BME280;13506;50.852;20.632;2023-08-06T12:11:21;96404.41;;;24.27;74.92
21359;BME280;13506;50.852;20.632;2023-08-06T12:13:51;96406.16;;;24.39;73.15
21359;BME280;13506;50.852;20.632;2023-08-06T12:16:19;96401.75;;;24.49;71.73
21359;BME280;13506;50.852;20.632;2023-08-06T12:18:48;96411.28;;;24.62;71.49
21359;BME280;13506;50.852;20.632;2023-08-06T12:21:17;96405.16;;;24.67;71.15
21359;BME280;13506;50.852;20.632;2023-08-06T12:23:45;96413.69;;;24.64;72.41
21359;BME280;13506;50.852;20.632;2023-08-06T12:26:13;96418.25;;;24.63;71.58
21359;BME280;13506;50.852;20.632;2023-08-06T12:28:43;96419.38;;;24.67;70.84
21359;BME280;13506;50.852;20.632;2023-08-06T12:31:11;96420.66;;;24.65;70.17
21359;BME280;13506;50.852;20.632;2023-08-06T12:33:39;96429.63;;;24.54;70.94
21359;BME280;13506;50.852;20.632;2023-08-06T12:36:08;96428.81;;;24.53;70.51
21359;BME280;13506;50.852;20.632;2023-08-06T12:38:36;96418.91;;;24.54;69.93
21359;BME280;13506;50.852;20.632;2023-08-06T12:41:04;96413.38;;;24.60;69.65
21359;BME280;13506;50.852;20.632;2023-08-06T12:43:32;96408.28;;;24.59;69.98
21359;BME280;13506;50.852;20.632;2023-08-06T12:46:01;96413.91;;;24.57;70.05
21359;BME280;13506;50.852;20.632;2023-08-06T12:48:31;96416.44;;;24.47;70.82
21359;BME280;13506;50.852;20.632;2023-08-06T12:50:59;96421.06;;;24.35;71.46
21359;BME280;13506;50.852;20.632;2023-08-06T12:53:27;96423.34;;;24.26;72.07